This is the latest recevied weather packets stored in our database for station/object HB9CYX-13. If no packets are shown the sender has not sent any weather packets the latest 10 day(s).
| Time | Temp. | Humidity | Pressure | Rain* | Wind** | Luminosity | Snow |
|---|---|---|---|---|---|---|---|
| 1777915632 | 12.78° C | 84% | 1016 hPa | 0 mm | - | - | - |
| 1777914895 | 12.78° C | 84% | 1016 hPa | 0 mm | - | - | - |
| 1777914158 | 12.78° C | 84% | 1016 hPa | 0.25 mm | - | - | - |
| 1777913421 | 12.78° C | 84% | 1015.9 hPa | 0.51 mm | - | - | - |
| 1777912683 | 12.78° C | 84% | 1015.9 hPa | 0.51 mm | - | - | - |
| 1777911946 | 13.33° C | 84% | 1015.8 hPa | 0.51 mm | - | - | - |
| 1777911209 | 13.33° C | 85% | 1015.7 hPa | 0.76 mm | - | - | - |
| 1777910472 | 13.33° C | 83% | 1016 hPa | 0.51 mm | - | - | - |
| 1777909735 | 13.33° C | 78% | 1015.9 hPa | 0.25 mm | - | - | - |
| 1777908997 | 13.89° C | 74% | 1015.9 hPa | 0.25 mm | - | - | - |
| 1777908260 | 14.44° C | 72% | 1015.7 hPa | 0.25 mm | - | - | - |
| 1777907523 | 15.56° C | 67% | 1015.2 hPa | 0 mm | - | - | - |
| 1777906786 | 16.67° C | 59% | 1014.7 hPa | 0 mm | - | - | - |
| 1777906048 | 18.33° C | 52% | 1013.8 hPa | 0 mm | - | - | - |
| 1777905311 | 18.89° C | 45% | 1013.6 hPa | 0 mm | - | - | - |
| 1777904574 | 19.44° C | 43% | 1013.4 hPa | 0 mm | - | - | - |
| 1777903837 | 20° C | 42% | 1013.3 hPa | 0 mm | - | - | - |
| 1777903100 | 20° C | 41% | 1013.2 hPa | 0 mm | - | - | - |
| 1777902362 | 20.56° C | 39% | 1013.1 hPa | 0 mm | - | - | - |
| 1777901625 | 21.11° C | 38% | 1013.1 hPa | 0 mm | - | - | - |
| 1777900888 | 21.11° C | 37% | 1013 hPa | 0 mm | - | - | - |
| 1777900151 | 21.67° C | 35% | 1012.9 hPa | 0 mm | - | - | - |
| 1777898483 | 23.33° C | 35% | 1012.8 hPa | 0 mm | - | - | - |
| 1777897747 | 23.89° C | 35% | 1012.5 hPa | 0 mm | - | - | - |
| 1777897011 | 23.89° C | 33% | 1012.7 hPa | 0 mm | - | - | - |
* Rain latest hour (hover to see other rain measurements)
** Current wind speed in m/s (hover to see current wind gust speed)